Airfield :
LOGIN :

Register | Disclaimer

   EN    FR    IT 

 










Legend :    VFR   Marginal VFR   IFR   Intensive IFR   Very Intensive IFR
Visi :
Ceiling :
>= 8 km
>= 3000ft
5 to 8 km
1000 to 3000 ft
1500m to 5 km
500 to 1000 ft
800 to 1500m
200 to 500 ft
< 800m
< 200 ft
Symbols :   Thunderstorms  Fog  Heavy snow  Heavy precipitations  Wind > 20 kt
SIGMETs :     Misc.  Thunderstorms  Icing  Turbulence  Mountain Waves  Volcanic Ashes






- Airport Elevation : 1299 ft


EDTY - Adolf Würth

CURRENT METAR :
  • 170350Z AUTO 00000KT 9999 // FEW074/// BKN100/// 14/13 Q1013

EXPIRED METARs :
  • 170320Z AUTO 10005KT 9999 // SCT081/// BKN100/// OVC130/// 14/13 Q1013
  • 170250Z AUTO 09003KT 9999 // FEW043/// OVC110/// 14/13 Q1013
  • 170220Z AUTO 26002KT 9999 // SCT042/// OVC100/// 15/13 Q1013
  • 170150Z AUTO VRB02KT 9999 // BKN041/// BKN049/// OVC096/// 16/13 Q1013
  • 170120Z AUTO VRB02KT 9999 // BKN044/// OVC053/// 15/13 Q1013
  • 170050Z AUTO 19003KT 110V230 9999 // BKN043/// OVC065/// 15/13 Q1013
  • 170020Z AUTO 22004KT 9999 // BKN047/// BKN056/// OVC067/// 15/13 Q1013
  • 162350Z AUTO 21003KT 9999 // OVC052/// 15/13 Q1013

Expired Forecast.



MET'MAP, your aeronautical weather chart ! - Copyright ORBIFLY December 2007 - Disclaimer

ORBIFLY MET'MAP TEAM :

Programming & Development : Alexandra Zaïnal
Original concept : Baudouin d'Aumeries
Technical & hardware support : Manuel Goepfert
Assistance : Marc-Olivier Méhu




SOURCES & CREDITS :

   NOAA